createdAt,value
2019-04-30T00:02:20.651Z,29.52
2019-04-30T00:04:51.955Z,29.45
2019-04-30T00:07:21.595Z,28.55
2019-04-30T00:09:54.044Z,28.98
2019-04-30T00:12:22.746Z,28.25
2019-04-30T00:14:52.466Z,29.92
2019-04-30T00:17:22.124Z,30.23
2019-04-30T00:19:55.849Z,30.55
2019-04-30T00:22:33.102Z,30.72
2019-04-30T00:24:55.953Z,30.40
2019-04-30T00:27:30.150Z,30.00
2019-04-30T00:30:00.355Z,30.15
2019-04-30T00:32:29.149Z,29.70
2019-04-30T00:34:59.074Z,31.10
2019-04-30T00:37:28.834Z,29.80
2019-04-30T00:39:59.499Z,29.15
2019-04-30T00:42:30.063Z,30.68
2019-04-30T00:45:06.742Z,30.50
2019-04-30T00:47:32.345Z,30.95
2019-04-30T00:50:04.999Z,29.57
2019-04-30T00:52:37.331Z,29.55
2019-04-30T00:55:09.312Z,31.12
2019-04-30T00:57:43.720Z,29.02
2019-04-30T01:00:19.631Z,30.77
2019-04-30T01:02:46.896Z,30.80
2019-04-30T01:05:18.072Z,30.90
2019-04-30T01:07:51.594Z,30.80
2019-04-30T01:10:23.660Z,31.40
2019-04-30T01:12:51.522Z,30.35
2019-04-30T01:15:21.250Z,31.12
2019-04-30T01:17:53.742Z,31.80
2019-04-30T01:20:31.108Z,31.05
2019-04-30T01:22:58.564Z,30.60
2019-04-30T01:25:28.822Z,30.45
2019-04-30T01:27:58.921Z,31.73
2019-04-30T01:30:29.022Z,30.08
2019-04-30T01:33:00.920Z,29.92
2019-04-30T01:35:32.761Z,29.57
2019-04-30T01:38:04.003Z,30.80
2019-04-30T01:40:33.783Z,30.02
2019-04-30T01:43:03.223Z,29.37
2019-04-30T01:45:32.815Z,29.85
2019-04-30T01:48:08.811Z,30.20
2019-04-30T01:50:38.626Z,32.13
2019-04-30T01:53:11.413Z,30.92
2019-04-30T01:55:53.394Z,31.25
2019-04-30T01:58:24.784Z,31.12
2019-04-30T02:00:59.399Z,31.33
2019-04-30T02:03:29.533Z,29.82
2019-04-30T02:06:00.028Z,27.20
2019-04-30T02:08:29.796Z,27.35
2019-04-30T02:10:59.686Z,25.08
2019-04-30T02:13:34.187Z,26.48
2019-04-30T02:16:00.542Z,26.97
2019-04-30T02:18:30.270Z,25.20
2019-04-30T02:20:59.924Z,25.25
2019-04-30T02:23:29.864Z,24.92
2019-04-30T02:26:00.774Z,24.30
2019-04-30T02:28:30.886Z,22.45
2019-04-30T02:31:00.841Z,22.55
2019-04-30T02:33:33.591Z,22.60
2019-04-30T02:36:16.770Z,21.23
2019-04-30T02:38:49.402Z,20.20
2019-04-30T02:41:20.313Z,19.27
2019-04-30T02:43:51.980Z,17.87
2019-04-30T02:46:24.113Z,17.77
2019-04-30T02:48:55.512Z,17.95
2019-04-30T02:51:29.926Z,16.67
2019-04-30T02:56:33.136Z,15.28
2019-04-30T02:59:04.070Z,15.72
2019-04-30T03:01:34.034Z,15.03
2019-04-30T03:04:03.671Z,14.68
2019-04-30T03:06:33.315Z,14.13
2019-04-30T03:09:05.647Z,12.95
2019-04-30T03:11:35.454Z,13.58
2019-04-30T03:14:05.558Z,14.00
2019-04-30T03:16:52.676Z,13.20
2019-04-30T03:22:01.990Z,12.65
2019-04-30T03:24:31.603Z,14.05
2019-04-30T03:27:01.950Z,14.73
2019-04-30T03:29:31.491Z,15.23
2019-04-30T03:32:03.313Z,16.52
2019-04-30T03:34:33.338Z,15.75
2019-04-30T03:37:03.487Z,16.37
2019-04-30T03:39:34.062Z,17.15
2019-04-30T03:42:03.860Z,17.12
2019-04-30T03:44:33.599Z,17.20
2019-04-30T03:47:03.756Z,17.20
2019-04-30T03:49:33.183Z,16.27
2019-04-30T03:52:03.133Z,16.35
2019-04-30T03:54:33.234Z,17.30
2019-04-30T03:57:02.785Z,15.75
2019-04-30T03:59:32.646Z,15.30
2019-04-30T04:02:20.958Z,13.70
2019-04-30T04:04:55.130Z,14.15
2019-04-30T04:07:29.989Z,14.05
2019-04-30T04:10:19.506Z,13.60
2019-04-30T04:12:49.878Z,14.65
2019-04-30T04:15:20.062Z,13.70
2019-04-30T04:17:50.525Z,14.95
2019-04-30T04:20:20.530Z,14.25
2019-04-30T04:22:50.835Z,14.25
2019-04-30T04:25:20.696Z,13.70
2019-04-30T04:27:51.097Z,13.75
2019-04-30T04:30:21.205Z,14.03
2019-04-30T04:32:51.117Z,14.45
2019-04-30T04:35:21.057Z,14.40
2019-04-30T04:37:51.391Z,14.07
2019-04-30T04:40:21.364Z,14.18
2019-04-30T04:42:51.472Z,14.38
2019-04-30T04:45:20.925Z,14.18
2019-04-30T04:47:51.387Z,13.88
2019-04-30T04:50:21.041Z,14.28
2019-04-30T04:52:52.297Z,14.75
2019-04-30T04:55:22.359Z,13.58
2019-04-30T04:57:52.678Z,14.45
2019-04-30T05:00:22.426Z,13.98
2019-04-30T05:02:53.915Z,14.55
2019-04-30T05:05:23.459Z,14.20
2019-04-30T05:07:53.413Z,13.68
2019-04-30T05:10:23.455Z,13.88
2019-04-30T05:12:53.600Z,14.13
2019-04-30T05:15:23.493Z,14.18
2019-04-30T05:17:55.095Z,13.40
2019-04-30T05:20:24.732Z,14.70
2019-04-30T05:22:54.495Z,13.98
2019-04-30T05:25:24.240Z,14.38
2019-04-30T05:27:54.302Z,14.10
2019-04-30T05:30:23.835Z,14.70
2019-04-30T05:32:54.547Z,14.38
2019-04-30T05:35:24.093Z,14.50
2019-04-30T05:37:53.953Z,14.55
2019-04-30T05:40:23.465Z,14.07
2019-04-30T05:42:53.310Z,14.23
2019-04-30T05:45:23.906Z,15.65
2019-04-30T05:47:53.684Z,13.45
2019-04-30T05:50:23.943Z,14.50
2019-04-30T05:52:54.482Z,14.38
2019-04-30T05:55:23.935Z,14.38
2019-04-30T05:57:56.415Z,13.85
2019-04-30T06:00:25.392Z,14.20
2019-04-30T06:02:55.045Z,13.28
2019-04-30T06:05:24.848Z,14.43
2019-04-30T06:07:55.509Z,14.95
2019-04-30T06:10:35.966Z,15.90
2019-04-30T06:13:13.631Z,15.05
2019-04-30T06:15:56.643Z,15.98
2019-04-30T06:18:28.603Z,15.18
2019-04-30T06:20:59.540Z,16.45
2019-04-30T06:23:29.455Z,16.67
2019-04-30T06:26:09.349Z,17.32
2019-04-30T06:28:33.125Z,18.55
2019-04-30T06:31:03.214Z,18.05
2019-04-30T06:33:33.163Z,18.00
2019-04-30T06:36:04.354Z,19.32
2019-04-30T06:38:34.251Z,19.30
2019-04-30T06:41:04.790Z,20.43
2019-04-30T06:43:34.820Z,20.35
2019-04-30T06:46:04.966Z,22.48
2019-04-30T06:48:35.195Z,22.20
2019-04-30T06:51:04.901Z,21.52
2019-04-30T06:53:34.818Z,21.93
2019-04-30T06:56:05.024Z,19.77
2019-04-30T06:58:34.462Z,21.35
2019-04-30T07:01:04.119Z,21.35
2019-04-30T07:03:34.078Z,20.68
2019-04-30T07:06:04.386Z,20.43
2019-04-30T07:08:46.881Z,20.27
2019-04-30T07:11:23.277Z,20.25
2019-04-30T07:13:53.299Z,20.15
2019-04-30T07:16:22.860Z,20.75
2019-04-30T07:18:52.601Z,19.82
2019-04-30T07:21:22.322Z,19.92
2019-04-30T07:23:52.027Z,20.17
2019-04-30T07:26:24.310Z,20.20
2019-04-30T07:28:55.244Z,19.32
2019-04-30T07:31:25.051Z,20.52
2019-04-30T07:33:54.689Z,21.27
2019-04-30T07:36:42.518Z,21.62
2019-04-30T07:38:56.840Z,22.00
2019-04-30T07:41:26.497Z,22.20
2019-04-30T07:43:56.025Z,22.17
2019-04-30T07:46:26.554Z,23.35
2019-04-30T07:48:56.432Z,22.60
2019-04-30T07:51:27.136Z,23.18
2019-04-30T07:53:59.037Z,23.67
2019-04-30T07:56:34.920Z,21.95
2019-04-30T07:59:02.840Z,22.05
2019-04-30T08:01:32.273Z,21.87
2019-04-30T08:04:15.825Z,21.73
2019-04-30T08:06:45.294Z,21.02
2019-04-30T08:09:15.000Z,20.43
2019-04-30T08:11:44.455Z,20.90
2019-04-30T08:14:13.896Z,21.70
2019-04-30T08:16:43.946Z,21.70
2019-04-30T08:19:13.691Z,22.85
2019-04-30T08:21:43.349Z,21.77
2019-04-30T08:24:13.046Z,21.17
2019-04-30T08:26:42.706Z,22.82
2019-04-30T08:29:13.509Z,21.85
2019-04-30T08:31:43.591Z,21.37
2019-04-30T08:34:13.748Z,22.20
2019-04-30T08:36:43.498Z,21.15
2019-04-30T08:39:13.009Z,21.85
2019-04-30T08:41:43.680Z,20.80
2019-04-30T08:44:13.767Z,22.15
2019-04-30T08:46:43.518Z,22.67
2019-04-30T08:49:14.171Z,21.45
2019-04-30T08:51:44.302Z,22.40
2019-04-30T08:54:14.192Z,22.48
2019-04-30T08:56:44.334Z,21.17
2019-04-30T08:59:14.280Z,21.57
2019-04-30T09:01:44.015Z,22.90
2019-04-30T09:04:14.046Z,22.50
2019-04-30T09:06:44.394Z,22.75
2019-04-30T09:09:15.420Z,23.02
2019-04-30T09:11:53.078Z,21.87
2019-04-30T09:14:16.373Z,23.62
2019-04-30T09:16:46.220Z,24.52
2019-04-30T09:19:16.738Z,26.05
2019-04-30T09:21:46.578Z,25.10
2019-04-30T09:24:16.216Z,23.30
2019-04-30T09:26:45.674Z,23.30
2019-04-30T09:29:15.113Z,23.60
2019-04-30T09:31:44.576Z,24.00
2019-04-30T09:34:17.886Z,22.22
2019-04-30T09:36:46.482Z,22.95
2019-04-30T09:39:15.956Z,25.15
2019-04-30T09:41:45.679Z,23.60
2019-04-30T09:44:15.384Z,22.95
2019-04-30T09:46:45.348Z,23.27
2019-04-30T09:49:14.979Z,24.55
2019-04-30T09:51:45.145Z,24.00
2019-04-30T09:54:15.143Z,22.35
2019-04-30T09:56:45.412Z,22.55
2019-04-30T09:59:15.045Z,23.38
2019-04-30T10:01:44.937Z,24.37
2019-04-30T10:04:15.601Z,22.70
2019-04-30T10:06:46.155Z,23.25
2019-04-30T10:09:15.859Z,23.90
2019-04-30T10:12:05.191Z,23.45
2019-04-30T10:14:34.827Z,23.57
2019-04-30T10:17:06.291Z,25.32
2019-04-30T10:19:35.893Z,23.12
2019-04-30T10:22:06.293Z,23.57
2019-04-30T10:24:35.919Z,25.57
2019-04-30T10:27:10.765Z,24.47
2019-04-30T10:29:36.782Z,23.73
2019-04-30T10:32:08.715Z,25.02
2019-04-30T10:34:38.200Z,25.00
2019-04-30T10:37:09.096Z,24.77
2019-04-30T10:39:39.110Z,24.90
2019-04-30T10:42:08.963Z,25.37
2019-04-30T10:44:38.660Z,24.15
2019-04-30T10:47:09.332Z,23.75
2019-04-30T10:49:39.391Z,24.47
2019-04-30T10:52:32.448Z,25.15
2019-04-30T10:55:04.569Z,26.05
2019-04-30T10:57:33.731Z,25.82
2019-04-30T11:00:04.848Z,25.12
2019-04-30T11:02:34.704Z,25.52
2019-04-30T11:05:08.849Z,25.72
2019-04-30T11:07:38.600Z,25.77
2019-04-30T11:10:10.046Z,27.32
2019-04-30T11:12:39.973Z,27.48
2019-04-30T11:15:10.257Z,28.60
2019-04-30T11:17:40.098Z,28.85
2019-04-30T11:20:11.471Z,28.50
2019-04-30T11:22:41.677Z,29.15
2019-04-30T11:25:12.284Z,29.45
2019-04-30T11:27:43.335Z,30.50
2019-04-30T11:30:21.428Z,30.35
2019-04-30T11:32:45.015Z,31.05
2019-04-30T11:35:15.487Z,30.10
2019-04-30T11:37:44.869Z,28.90
2019-04-30T11:40:15.509Z,29.63
2019-04-30T11:42:45.063Z,29.30
2019-04-30T11:45:19.358Z,29.48
2019-04-30T11:47:53.553Z,31.02
2019-04-30T11:50:21.310Z,31.30
2019-04-30T11:52:50.950Z,31.33
2019-04-30T11:55:20.701Z,31.45
2019-04-30T11:57:50.445Z,31.37
2019-04-30T12:00:22.880Z,30.97
2019-04-30T12:02:53.149Z,30.25
2019-04-30T12:05:23.509Z,30.43
2019-04-30T12:07:54.904Z,30.65
2019-04-30T12:10:29.454Z,30.60
2019-04-30T12:15:29.118Z,30.57
2019-04-30T12:17:59.087Z,31.45
2019-04-30T12:20:28.686Z,30.37
2019-04-30T12:22:59.326Z,31.62
2019-04-30T12:25:30.390Z,31.55
2019-04-30T12:28:00.162Z,31.27
2019-04-30T12:30:29.903Z,31.87
2019-04-30T12:33:00.597Z,31.80
2019-04-30T12:35:31.365Z,31.87
2019-04-30T12:38:00.845Z,32.08
2019-04-30T12:40:32.343Z,31.48
2019-04-30T12:43:02.156Z,33.75
2019-04-30T12:45:31.897Z,32.48
2019-04-30T12:48:03.403Z,32.58
2019-04-30T12:50:40.420Z,33.45
2019-04-30T12:53:12.163Z,31.40
2019-04-30T12:56:00.407Z,31.33
2019-04-30T12:58:30.540Z,31.23
2019-04-30T13:01:00.385Z,31.02
2019-04-30T13:03:30.918Z,29.52
2019-04-30T13:06:01.613Z,30.43
2019-04-30T13:08:32.695Z,29.60
2019-04-30T13:11:03.288Z,30.77
2019-04-30T13:13:33.331Z,32.63
2019-04-30T13:16:03.823Z,32.78
2019-04-30T13:18:33.253Z,32.48
2019-04-30T13:21:03.128Z,31.57
2019-04-30T13:23:33.512Z,31.73
2019-04-30T13:26:03.154Z,32.08
2019-04-30T13:28:51.051Z,32.58
2019-04-30T13:31:20.804Z,33.75
2019-04-30T13:33:52.453Z,31.65
2019-04-30T13:36:22.911Z,32.28
2019-04-30T13:38:56.906Z,31.75
2019-04-30T13:41:34.114Z,32.60
2019-04-30T13:44:04.306Z,32.28
2019-04-30T13:46:34.475Z,33.58
2019-04-30T13:49:04.183Z,32.08
2019-04-30T13:51:33.926Z,34.00
2019-04-30T13:54:03.578Z,34.88
2019-04-30T13:56:33.234Z,34.90
2019-04-30T13:59:02.792Z,33.00
2019-04-30T14:01:32.424Z,32.75
2019-04-30T14:04:21.559Z,33.35
2019-04-30T14:07:10.728Z,33.02
2019-04-30T14:09:41.418Z,33.67
2019-04-30T14:12:11.135Z,33.63
2019-04-30T14:14:41.043Z,34.45
2019-04-30T14:17:11.761Z,34.13
2019-04-30T14:19:41.402Z,34.40
2019-04-30T14:22:12.836Z,34.90
2019-04-30T14:24:42.292Z,35.08
2019-04-30T14:27:12.408Z,35.98
2019-04-30T14:29:42.488Z,35.83
2019-04-30T14:32:12.925Z,35.48
2019-04-30T14:34:42.734Z,34.58
2019-04-30T14:37:12.458Z,35.15
2019-04-30T14:39:42.322Z,35.63
2019-04-30T14:42:12.869Z,35.40
2019-04-30T14:44:44.167Z,37.03
2019-04-30T14:47:26.222Z,35.90
2019-04-30T14:50:09.874Z,36.10
2019-04-30T14:52:51.817Z,35.63
2019-04-30T14:55:34.213Z,34.48
2019-04-30T14:58:09.661Z,36.73
2019-04-30T15:00:47.310Z,34.55
2019-04-30T15:03:19.402Z,34.95
2019-04-30T15:05:51.702Z,35.75
2019-04-30T15:08:21.843Z,34.70
2019-04-30T15:10:51.970Z,33.73
2019-04-30T15:13:22.412Z,33.80
2019-04-30T15:15:52.171Z,32.78
2019-04-30T15:18:21.909Z,35.25
2019-04-30T15:20:51.897Z,35.13
2019-04-30T15:23:39.523Z,33.92
2019-04-30T15:26:21.713Z,33.92
2019-04-30T15:28:41.465Z,34.92
2019-04-30T15:31:11.304Z,34.25
2019-04-30T15:33:42.902Z,33.58
2019-04-30T15:36:13.228Z,35.05
2019-04-30T15:39:03.144Z,35.52
2019-04-30T15:41:32.774Z,33.67
2019-04-30T15:44:02.639Z,33.90
2019-04-30T15:46:32.812Z,34.20
2019-04-30T15:49:02.599Z,35.05
2019-04-30T15:51:33.226Z,35.05
2019-04-30T15:54:03.805Z,34.27
2019-04-30T15:56:37.083Z,35.15
2019-04-30T15:59:08.879Z,35.03
2019-04-30T16:01:40.083Z,35.57
2019-04-30T16:04:11.357Z,35.03
2019-04-30T16:06:42.547Z,35.25
2019-04-30T16:09:30.005Z,33.38
2019-04-30T16:12:03.970Z,32.98
2019-04-30T16:14:39.597Z,32.95
2019-04-30T16:17:11.076Z,32.90
2019-04-30T16:19:41.229Z,31.85
2019-04-30T16:22:11.450Z,31.75
2019-04-30T16:24:41.277Z,31.60
2019-04-30T16:27:11.103Z,31.15
2019-04-30T16:29:40.936Z,30.30
2019-04-30T16:32:10.455Z,29.82
2019-04-30T16:34:40.454Z,28.75
2019-04-30T16:37:09.979Z,29.35
2019-04-30T16:39:39.817Z,27.13
2019-04-30T16:42:10.218Z,26.75
2019-04-30T16:44:40.062Z,25.75
2019-04-30T16:47:14.409Z,24.45
2019-04-30T16:49:41.659Z,24.77
2019-04-30T16:52:11.482Z,24.30
2019-04-30T16:54:41.317Z,23.45
2019-04-30T16:57:11.860Z,23.15
2019-04-30T16:59:42.431Z,23.40
2019-04-30T17:02:13.888Z,24.43
2019-04-30T17:04:51.387Z,22.95
2019-04-30T17:07:38.792Z,24.07
2019-04-30T17:10:22.143Z,23.50
2019-04-30T17:13:11.806Z,24.47
2019-04-30T17:15:46.059Z,25.12
2019-04-30T17:18:15.503Z,25.95
2019-04-30T17:20:46.252Z,24.40
2019-04-30T17:23:16.020Z,26.15
2019-04-30T17:25:46.267Z,25.32
2019-04-30T17:28:16.017Z,25.10
2019-04-30T17:30:46.030Z,25.27
2019-04-30T17:33:15.577Z,24.43
2019-04-30T17:35:45.139Z,25.00
2019-04-30T17:38:14.792Z,24.12
2019-04-30T17:40:44.326Z,24.60
2019-04-30T17:43:14.162Z,24.40
2019-04-30T17:45:43.900Z,23.18
2019-04-30T17:48:13.361Z,22.80
2019-04-30T17:50:42.985Z,23.40
2019-04-30T17:53:12.719Z,23.67
2019-04-30T17:55:42.368Z,23.75
2019-04-30T17:58:12.325Z,22.85
2019-04-30T18:00:43.486Z,24.27
2019-04-30T18:03:13.214Z,23.95
2019-04-30T18:05:42.661Z,25.72
2019-04-30T18:08:12.118Z,25.00
2019-04-30T18:10:41.875Z,23.85
2019-04-30T18:13:11.814Z,26.30
2019-04-30T18:15:41.651Z,26.30
2019-04-30T18:18:13.143Z,25.72
2019-04-30T18:20:56.960Z,25.25
2019-04-30T18:23:29.236Z,26.37
2019-04-30T18:26:00.626Z,26.95
2019-04-30T18:28:30.069Z,26.62
2019-04-30T18:30:59.797Z,28.15
2019-04-30T18:33:29.434Z,27.70
2019-04-30T18:35:59.670Z,27.67
2019-04-30T18:38:31.118Z,28.38
2019-04-30T18:41:01.109Z,28.25
2019-04-30T18:43:30.846Z,29.77
2019-04-30T18:46:01.317Z,29.15
2019-04-30T18:48:30.858Z,29.37
2019-04-30T18:51:00.843Z,28.05
2019-04-30T18:53:32.024Z,29.23
2019-04-30T18:56:01.575Z,29.92
2019-04-30T18:58:39.971Z,30.43
2019-04-30T19:01:03.158Z,29.42
2019-04-30T19:03:32.600Z,30.20
2019-04-30T19:06:03.967Z,29.77
2019-04-30T19:08:39.479Z,30.02
2019-04-30T19:11:28.930Z,31.65
2019-04-30T19:14:00.388Z,29.72
2019-04-30T19:16:44.015Z,29.05
2019-04-30T19:19:15.392Z,29.37
2019-04-30T19:21:45.225Z,28.73
2019-04-30T19:24:15.043Z,30.95
2019-04-30T19:26:44.795Z,31.35
2019-04-30T19:29:15.496Z,31.20
2019-04-30T19:31:45.461Z,29.65
2019-04-30T19:34:15.124Z,32.40
2019-04-30T19:36:44.881Z,32.83
2019-04-30T19:39:16.203Z,31.75
2019-04-30T19:41:45.921Z,31.97
2019-04-30T19:44:16.031Z,32.63
2019-04-30T19:46:46.135Z,33.50
2019-04-30T19:49:15.840Z,34.53
2019-04-30T19:51:45.238Z,34.08
2019-04-30T19:54:14.867Z,32.90
2019-04-30T19:56:44.495Z,32.60
2019-04-30T19:59:13.956Z,32.60
2019-04-30T20:01:43.831Z,33.70
2019-04-30T20:04:13.471Z,33.20
2019-04-30T20:06:43.466Z,33.48
2019-04-30T20:09:13.577Z,33.30
2019-04-30T20:11:43.232Z,33.05
2019-04-30T20:14:13.110Z,33.33
2019-04-30T20:16:43.211Z,34.35
2019-04-30T20:19:13.154Z,34.55
2019-04-30T20:21:48.664Z,34.10
2019-04-30T20:24:14.981Z,34.85
2019-04-30T20:26:44.531Z,34.13
2019-04-30T20:29:14.231Z,35.63
2019-04-30T20:31:43.785Z,34.90
2019-04-30T20:34:13.559Z,35.95
2019-04-30T20:36:43.006Z,36.53
2019-04-30T20:39:20.017Z,35.92
2019-04-30T20:41:51.200Z,37.42
2019-04-30T20:44:20.928Z,37.42
2019-04-30T20:46:50.587Z,37.70
2019-04-30T20:49:20.286Z,36.77
2019-04-30T20:51:55.619Z,38.60
2019-04-30T20:54:21.577Z,37.60
2019-04-30T20:56:51.843Z,38.55
2019-04-30T20:59:21.784Z,38.63
2019-04-30T21:01:51.563Z,38.65
2019-04-30T21:04:21.408Z,38.33
2019-04-30T21:06:52.353Z,37.23
2019-04-30T21:09:21.865Z,38.33
2019-04-30T21:11:51.725Z,38.33
2019-04-30T21:14:21.468Z,38.70
2019-04-30T21:16:51.633Z,40.25
2019-04-30T21:19:21.441Z,37.98
2019-04-30T21:21:51.197Z,38.73
2019-04-30T21:24:21.508Z,38.95
2019-04-30T21:26:51.256Z,40.10
2019-04-30T21:29:20.637Z,39.35
2019-04-30T21:32:08.965Z,38.75
2019-04-30T21:34:56.786Z,40.38
2019-04-30T21:37:26.716Z,40.65
2019-04-30T21:39:58.579Z,40.67
2019-04-30T21:42:28.460Z,42.17
2019-04-30T21:44:58.516Z,41.90
2019-04-30T21:47:28.238Z,42.50
2019-04-30T21:49:57.878Z,40.98
2019-04-30T21:52:27.638Z,42.80
2019-04-30T21:54:57.087Z,43.35
2019-04-30T21:57:27.237Z,43.85
2019-04-30T21:59:58.680Z,43.52
2019-04-30T22:02:28.114Z,43.35
2019-04-30T22:04:58.276Z,44.65
2019-04-30T22:07:29.463Z,42.88
2019-04-30T22:09:59.380Z,44.60
2019-04-30T22:12:31.126Z,44.55
2019-04-30T22:15:01.130Z,43.78
2019-04-30T22:17:31.080Z,43.75
2019-04-30T22:20:00.727Z,44.63
2019-04-30T22:22:30.282Z,45.90
2019-04-30T22:24:59.918Z,44.38
2019-04-30T22:27:29.678Z,45.63
2019-04-30T22:29:59.423Z,45.65
2019-04-30T22:32:28.939Z,44.63
2019-04-30T22:35:00.109Z,45.52
2019-04-30T22:37:29.961Z,44.27
2019-04-30T22:40:02.246Z,45.28
2019-04-30T22:42:33.705Z,44.58
2019-04-30T22:45:07.395Z,47.08
2019-04-30T22:47:37.235Z,44.13
2019-04-30T22:50:08.809Z,47.33
2019-04-30T22:52:38.546Z,45.45
2019-04-30T22:55:08.440Z,47.53
2019-04-30T22:57:38.076Z,45.55
2019-04-30T23:00:10.959Z,48.68
2019-04-30T23:02:41.986Z,47.43
2019-04-30T23:05:13.438Z,46.48
2019-04-30T23:07:43.305Z,48.20
2019-04-30T23:10:13.235Z,48.65
2019-04-30T23:12:43.239Z,48.45
2019-04-30T23:15:14.134Z,48.10
2019-04-30T23:17:43.772Z,48.08
2019-04-30T23:20:13.615Z,49.18
2019-04-30T23:22:43.351Z,48.98
2019-04-30T23:25:12.970Z,48.02
2019-04-30T23:27:42.619Z,48.40
2019-04-30T23:30:13.517Z,46.13
2019-04-30T23:32:42.960Z,49.55
2019-04-30T23:35:13.864Z,47.27
2019-04-30T23:37:43.401Z,49.13
2019-04-30T23:40:28.450Z,45.60
2019-04-30T23:42:58.318Z,46.77
2019-04-30T23:45:27.871Z,46.95
2019-04-30T23:47:57.512Z,49.20
2019-04-30T23:50:27.065Z,45.05
2019-04-30T23:52:56.789Z,47.33
2019-04-30T23:55:26.742Z,46.40
2019-04-30T23:57:56.184Z,46.85
